sensor_id;sensor_type;location;lat;lon;timestamp;P1;durP1;ratioP1;P2;durP2;ratioP2
8397;SDS011;4236;54.504;9.588;2023-02-19T00:01:28;299.07;;;287.03;;
8397;SDS011;4236;54.504;9.588;2023-02-19T00:03:59;289.47;;;279.13;;
8397;SDS011;4236;54.504;9.588;2023-02-19T00:06:28;286.03;;;274.73;;
8397;SDS011;4236;54.504;9.588;2023-02-19T00:08:57;291.13;;;280.33;;
8397;SDS011;4236;54.504;9.588;2023-02-19T00:11:26;287.27;;;276.93;;
8397;SDS011;4236;54.504;9.588;2023-02-19T00:13:55;296.67;;;286.20;;
8397;SDS011;4236;54.504;9.588;2023-02-19T00:16:24;299.73;;;288.83;;
8397;SDS011;4236;54.504;9.588;2023-02-19T00:18:53;300.43;;;289.40;;
8397;SDS011;4236;54.504;9.588;2023-02-19T00:21:23;287.53;;;277.37;;
8397;SDS011;4236;54.504;9.588;2023-02-19T00:23:52;286.43;;;276.43;;
8397;SDS011;4236;54.504;9.588;2023-02-19T00:26:21;293.77;;;282.53;;
8397;SDS011;4236;54.504;9.588;2023-02-19T00:28:50;294.87;;;283.70;;
8397;SDS011;4236;54.504;9.588;2023-02-19T00:31:20;287.10;;;275.40;;
8397;SDS011;4236;54.504;9.588;2023-02-19T00:33:50;290.93;;;279.43;;
8397;SDS011;4236;54.504;9.588;2023-02-19T00:36:19;290.07;;;279.80;;
8397;SDS011;4236;54.504;9.588;2023-02-19T00:38:49;289.90;;;279.80;;
8397;SDS011;4236;54.504;9.588;2023-02-19T00:41:18;296.87;;;286.27;;
8397;SDS011;4236;54.504;9.588;2023-02-19T00:43:47;300.37;;;288.47;;
8397;SDS011;4236;54.504;9.588;2023-02-19T00:46:17;291.10;;;280.80;;
8397;SDS011;4236;54.504;9.588;2023-02-19T00:48:46;288.00;;;277.20;;
8397;SDS011;4236;54.504;9.588;2023-02-19T00:51:14;291.30;;;280.30;;
8397;SDS011;4236;54.504;9.588;2023-02-19T00:53:42;299.60;;;288.63;;
8397;SDS011;4236;54.504;9.588;2023-02-19T00:56:11;297.70;;;286.63;;
8397;SDS011;4236;54.504;9.588;2023-02-19T00:58:39;287.90;;;277.00;;
8397;SDS011;4236;54.504;9.588;2023-02-19T01:01:08;289.67;;;278.93;;
8397;SDS011;4236;54.504;9.588;2023-02-19T01:03:37;281.77;;;271.33;;
8397;SDS011;4236;54.504;9.588;2023-02-19T01:06:06;285.17;;;274.87;;
8397;SDS011;4236;54.504;9.588;2023-02-19T01:08:36;295.53;;;284.93;;
8397;SDS011;4236;54.504;9.588;2023-02-19T01:11:04;289.93;;;279.10;;
8397;SDS011;4236;54.504;9.588;2023-02-19T01:13:36;294.43;;;283.83;;
8397;SDS011;4236;54.504;9.588;2023-02-19T01:16:04;287.30;;;276.43;;
8397;SDS011;4236;54.504;9.588;2023-02-19T01:18:33;291.37;;;280.60;;
8397;SDS011;4236;54.504;9.588;2023-02-19T01:21:03;293.17;;;282.20;;
8397;SDS011;4236;54.504;9.588;2023-02-19T01:23:32;291.33;;;280.33;;
8397;SDS011;4236;54.504;9.588;2023-02-19T01:26:02;296.50;;;285.00;;
8397;SDS011;4236;54.504;9.588;2023-02-19T01:28:30;304.20;;;292.73;;
8397;SDS011;4236;54.504;9.588;2023-02-19T01:31:01;303.13;;;292.00;;
8397;SDS011;4236;54.504;9.588;2023-02-19T01:33:29;289.50;;;278.40;;
8397;SDS011;4236;54.504;9.588;2023-02-19T01:35:57;293.00;;;282.03;;
8397;SDS011;4236;54.504;9.588;2023-02-19T01:38:25;292.60;;;282.00;;
8397;SDS011;4236;54.504;9.588;2023-02-19T01:40:54;281.93;;;271.70;;
8397;SDS011;4236;54.504;9.588;2023-02-19T01:43:23;266.20;;;257.10;;
8397;SDS011;4236;54.504;9.588;2023-02-19T01:45:50;269.43;;;259.73;;
8397;SDS011;4236;54.504;9.588;2023-02-19T01:48:21;262.53;;;252.93;;
8397;SDS011;4236;54.504;9.588;2023-02-19T01:50:52;255.50;;;246.33;;
8397;SDS011;4236;54.504;9.588;2023-02-19T01:53:25;243.07;;;234.27;;
8397;SDS011;4236;54.504;9.588;2023-02-19T01:55:56;238.67;;;229.57;;
8397;SDS011;4236;54.504;9.588;2023-02-19T01:58:27;232.17;;;223.37;;
8397;SDS011;4236;54.504;9.588;2023-02-19T02:00:59;225.83;;;218.03;;
8397;SDS011;4236;54.504;9.588;2023-02-19T02:03:31;220.27;;;211.90;;
8397;SDS011;4236;54.504;9.588;2023-02-19T02:06:01;211.20;;;203.47;;
8397;SDS011;4236;54.504;9.588;2023-02-19T02:08:31;212.53;;;205.50;;
8397;SDS011;4236;54.504;9.588;2023-02-19T02:11:18;211.83;;;204.20;;
8397;SDS011;4236;54.504;9.588;2023-02-19T02:13:46;201.53;;;194.40;;
8397;SDS011;4236;54.504;9.588;2023-02-19T02:16:22;189.83;;;183.13;;
8397;SDS011;4236;54.504;9.588;2023-02-19T02:19:00;185.70;;;179.20;;
8397;SDS011;4236;54.504;9.588;2023-02-19T02:21:40;178.03;;;171.47;;
8397;SDS011;4236;54.504;9.588;2023-02-19T02:24:27;175.93;;;168.37;;
8397;SDS011;4236;54.504;9.588;2023-02-19T02:27:22;167.50;;;161.60;;
8397;SDS011;4236;54.504;9.588;2023-02-19T02:30:10;172.20;;;165.77;;
8397;SDS011;4236;54.504;9.588;2023-02-19T02:32:53;164.97;;;159.00;;
8397;SDS011;4236;54.504;9.588;2023-02-19T02:35:26;165.60;;;159.20;;
8397;SDS011;4236;54.504;9.588;2023-02-19T02:37:59;163.90;;;157.53;;
8397;SDS011;4236;54.504;9.588;2023-02-19T02:40:30;168.50;;;162.10;;
8397;SDS011;4236;54.504;9.588;2023-02-19T02:42:58;169.80;;;163.40;;
8397;SDS011;4236;54.504;9.588;2023-02-19T02:45:30;164.00;;;158.10;;
8397;SDS011;4236;54.504;9.588;2023-02-19T02:48:00;164.40;;;158.03;;
8397;SDS011;4236;54.504;9.588;2023-02-19T02:50:40;168.10;;;161.63;;
8397;SDS011;4236;54.504;9.588;2023-02-19T02:53:13;163.47;;;157.23;;
8397;SDS011;4236;54.504;9.588;2023-02-19T02:56:03;171.20;;;164.70;;
8397;SDS011;4236;54.504;9.588;2023-02-19T02:58:31;173.80;;;167.20;;
8397;SDS011;4236;54.504;9.588;2023-02-19T03:01:03;171.90;;;165.23;;
8397;SDS011;4236;54.504;9.588;2023-02-19T03:03:53;176.80;;;170.13;;
8397;SDS011;4236;54.504;9.588;2023-02-19T03:06:25;194.17;;;187.07;;
8397;SDS011;4236;54.504;9.588;2023-02-19T03:08:57;176.77;;;169.80;;
8397;SDS011;4236;54.504;9.588;2023-02-19T03:11:28;179.93;;;172.73;;
8397;SDS011;4236;54.504;9.588;2023-02-19T03:14:18;177.53;;;170.93;;
8397;SDS011;4236;54.504;9.588;2023-02-19T03:17:09;179.93;;;173.20;;
8397;SDS011;4236;54.504;9.588;2023-02-19T03:20:02;189.17;;;182.10;;
8397;SDS011;4236;54.504;9.588;2023-02-19T03:22:34;195.73;;;188.80;;
8397;SDS011;4236;54.504;9.588;2023-02-19T03:25:06;198.17;;;190.70;;
8397;SDS011;4236;54.504;9.588;2023-02-19T03:27:56;201.57;;;194.13;;
8397;SDS011;4236;54.504;9.588;2023-02-19T03:30:27;216.20;;;208.13;;
8397;SDS011;4236;54.504;9.588;2023-02-19T03:32:59;199.97;;;191.97;;
8397;SDS011;4236;54.504;9.588;2023-02-19T03:35:34;209.47;;;202.10;;
8397;SDS011;4236;54.504;9.588;2023-02-19T03:38:08;205.80;;;198.90;;
8397;SDS011;4236;54.504;9.588;2023-02-19T03:40:46;208.93;;;201.77;;
8397;SDS011;4236;54.504;9.588;2023-02-19T03:43:23;214.73;;;206.23;;
8397;SDS011;4236;54.504;9.588;2023-02-19T03:46:01;212.70;;;205.57;;
8397;SDS011;4236;54.504;9.588;2023-02-19T03:48:36;207.27;;;200.37;;
8397;SDS011;4236;54.504;9.588;2023-02-19T03:54:13;210.10;;;202.40;;
8397;SDS011;4236;54.504;9.588;2023-02-19T03:56:46;223.47;;;215.27;;
8397;SDS011;4236;54.504;9.588;2023-02-19T03:59:19;215.60;;;207.80;;
8397;SDS011;4236;54.504;9.588;2023-02-19T04:01:57;223.00;;;215.40;;
8397;SDS011;4236;54.504;9.588;2023-02-19T04:04:30;224.90;;;216.93;;
8397;SDS011;4236;54.504;9.588;2023-02-19T04:07:01;239.60;;;230.90;;
8397;SDS011;4236;54.504;9.588;2023-02-19T04:09:30;228.13;;;219.60;;
8397;SDS011;4236;54.504;9.588;2023-02-19T04:12:03;230.10;;;222.00;;
8397;SDS011;4236;54.504;9.588;2023-02-19T04:14:32;227.40;;;218.50;;
8397;SDS011;4236;54.504;9.588;2023-02-19T04:17:05;227.83;;;219.50;;
8397;SDS011;4236;54.504;9.588;2023-02-19T04:19:37;226.47;;;218.13;;
8397;SDS011;4236;54.504;9.588;2023-02-19T04:22:07;222.00;;;213.10;;
8397;SDS011;4236;54.504;9.588;2023-02-19T04:24:37;224.33;;;215.93;;
8397;SDS011;4236;54.504;9.588;2023-02-19T04:27:09;219.90;;;211.43;;
8397;SDS011;4236;54.504;9.588;2023-02-19T04:29:37;224.77;;;216.97;;
8397;SDS011;4236;54.504;9.588;2023-02-19T04:32:05;218.73;;;210.53;;
8397;SDS011;4236;54.504;9.588;2023-02-19T04:34:33;208.53;;;201.03;;
8397;SDS011;4236;54.504;9.588;2023-02-19T04:37:02;216.90;;;208.83;;
8397;SDS011;4236;54.504;9.588;2023-02-19T04:39:29;203.30;;;196.07;;
8397;SDS011;4236;54.504;9.588;2023-02-19T04:41:57;205.53;;;197.10;;
8397;SDS011;4236;54.504;9.588;2023-02-19T04:44:25;213.47;;;205.93;;
8397;SDS011;4236;54.504;9.588;2023-02-19T04:46:53;210.90;;;202.70;;
8397;SDS011;4236;54.504;9.588;2023-02-19T04:49:21;210.03;;;202.10;;
8397;SDS011;4236;54.504;9.588;2023-02-19T04:51:49;203.17;;;195.60;;
8397;SDS011;4236;54.504;9.588;2023-02-19T04:54:18;203.67;;;196.17;;
8397;SDS011;4236;54.504;9.588;2023-02-19T04:56:46;210.23;;;202.43;;
8397;SDS011;4236;54.504;9.588;2023-02-19T04:59:15;207.27;;;198.90;;
8397;SDS011;4236;54.504;9.588;2023-02-19T05:01:43;207.10;;;198.30;;
8397;SDS011;4236;54.504;9.588;2023-02-19T05:04:11;205.80;;;197.93;;
8397;SDS011;4236;54.504;9.588;2023-02-19T05:06:38;196.10;;;188.97;;
8397;SDS011;4236;54.504;9.588;2023-02-19T05:09:06;204.23;;;196.67;;
8397;SDS011;4236;54.504;9.588;2023-02-19T05:11:35;204.23;;;196.73;;
8397;SDS011;4236;54.504;9.588;2023-02-19T05:14:03;200.43;;;192.80;;
8397;SDS011;4236;54.504;9.588;2023-02-19T05:16:31;207.43;;;200.13;;
8397;SDS011;4236;54.504;9.588;2023-02-19T05:18:59;205.33;;;196.63;;
8397;SDS011;4236;54.504;9.588;2023-02-19T05:21:27;197.07;;;190.00;;
8397;SDS011;4236;54.504;9.588;2023-02-19T05:23:55;199.13;;;192.30;;
8397;SDS011;4236;54.504;9.588;2023-02-19T05:26:22;199.67;;;192.67;;
8397;SDS011;4236;54.504;9.588;2023-02-19T05:28:52;202.80;;;195.03;;
8397;SDS011;4236;54.504;9.588;2023-02-19T05:31:20;203.63;;;196.30;;
8397;SDS011;4236;54.504;9.588;2023-02-19T05:33:48;196.87;;;189.43;;
8397;SDS011;4236;54.504;9.588;2023-02-19T05:36:18;194.27;;;186.73;;
8397;SDS011;4236;54.504;9.588;2023-02-19T05:38:50;204.17;;;195.40;;
8397;SDS011;4236;54.504;9.588;2023-02-19T05:41:20;179.97;;;172.60;;
8397;SDS011;4236;54.504;9.588;2023-02-19T05:43:49;187.40;;;180.73;;
8397;SDS011;4236;54.504;9.588;2023-02-19T05:46:19;173.43;;;167.00;;
8397;SDS011;4236;54.504;9.588;2023-02-19T05:48:49;174.57;;;167.90;;
8397;SDS011;4236;54.504;9.588;2023-02-19T05:51:20;178.53;;;171.90;;
8397;SDS011;4236;54.504;9.588;2023-02-19T05:53:48;183.60;;;177.27;;
8397;SDS011;4236;54.504;9.588;2023-02-19T05:56:22;181.43;;;174.10;;
8397;SDS011;4236;54.504;9.588;2023-02-19T05:58:53;177.13;;;169.60;;
8397;SDS011;4236;54.504;9.588;2023-02-19T06:01:23;161.73;;;155.73;;
8397;SDS011;4236;54.504;9.588;2023-02-19T06:03:53;167.30;;;160.70;;
8397;SDS011;4236;54.504;9.588;2023-02-19T06:06:23;163.47;;;157.30;;
8397;SDS011;4236;54.504;9.588;2023-02-19T06:08:51;154.30;;;149.00;;
8397;SDS011;4236;54.504;9.588;2023-02-19T06:11:19;157.73;;;151.63;;
8397;SDS011;4236;54.504;9.588;2023-02-19T06:13:47;153.53;;;147.80;;
8397;SDS011;4236;54.504;9.588;2023-02-19T06:16:16;146.70;;;140.80;;
8397;SDS011;4236;54.504;9.588;2023-02-19T06:18:46;149.80;;;143.80;;
8397;SDS011;4236;54.504;9.588;2023-02-19T06:21:14;137.10;;;130.10;;
8397;SDS011;4236;54.504;9.588;2023-02-19T06:23:43;133.60;;;128.60;;
8397;SDS011;4236;54.504;9.588;2023-02-19T06:26:13;139.47;;;134.03;;
8397;SDS011;4236;54.504;9.588;2023-02-19T06:28:43;138.60;;;133.33;;
8397;SDS011;4236;54.504;9.588;2023-02-19T06:31:11;135.07;;;129.90;;
8397;SDS011;4236;54.504;9.588;2023-02-19T06:33:40;129.57;;;124.77;;
8397;SDS011;4236;54.504;9.588;2023-02-19T06:36:10;129.47;;;124.77;;
8397;SDS011;4236;54.504;9.588;2023-02-19T06:38:39;130.23;;;125.10;;
8397;SDS011;4236;54.504;9.588;2023-02-19T06:41:08;127.20;;;121.73;;
8397;SDS011;4236;54.504;9.588;2023-02-19T06:43:37;122.27;;;117.40;;
8397;SDS011;4236;54.504;9.588;2023-02-19T06:46:05;124.43;;;118.93;;
8397;SDS011;4236;54.504;9.588;2023-02-19T06:48:34;133.40;;;127.50;;
8397;SDS011;4236;54.504;9.588;2023-02-19T06:51:01;124.60;;;119.50;;
8397;SDS011;4236;54.504;9.588;2023-02-19T06:53:30;130.87;;;125.63;;
8397;SDS011;4236;54.504;9.588;2023-02-19T06:55:59;123.97;;;119.33;;
8397;SDS011;4236;54.504;9.588;2023-02-19T06:58:28;124.37;;;119.00;;
8397;SDS011;4236;54.504;9.588;2023-02-19T07:00:56;131.80;;;126.50;;
8397;SDS011;4236;54.504;9.588;2023-02-19T07:03:24;117.53;;;113.20;;
8397;SDS011;4236;54.504;9.588;2023-02-19T07:05:52;120.67;;;115.60;;
8397;SDS011;4236;54.504;9.588;2023-02-19T07:08:20;118.73;;;114.30;;
8397;SDS011;4236;54.504;9.588;2023-02-19T07:10:54;116.63;;;111.77;;
8397;SDS011;4236;54.504;9.588;2023-02-19T07:13:22;109.00;;;104.23;;
8397;SDS011;4236;54.504;9.588;2023-02-19T07:15:54;111.57;;;106.70;;
8397;SDS011;4236;54.504;9.588;2023-02-19T07:18:25;107.27;;;103.20;;
8397;SDS011;4236;54.504;9.588;2023-02-19T07:20:53;105.53;;;100.53;;
8397;SDS011;4236;54.504;9.588;2023-02-19T07:23:21;107.67;;;103.03;;
8397;SDS011;4236;54.504;9.588;2023-02-19T07:25:49;108.60;;;103.93;;
8397;SDS011;4236;54.504;9.588;2023-02-19T07:28:18;105.90;;;101.23;;
8397;SDS011;4236;54.504;9.588;2023-02-19T07:30:45;104.27;;;100.07;;
8397;SDS011;4236;54.504;9.588;2023-02-19T07:33:13;111.80;;;106.93;;
8397;SDS011;4236;54.504;9.588;2023-02-19T07:35:43;105.40;;;100.73;;
8397;SDS011;4236;54.504;9.588;2023-02-19T07:38:14;110.87;;;106.10;;
8397;SDS011;4236;54.504;9.588;2023-02-19T07:40:49;101.47;;;97.13;;
8397;SDS011;4236;54.504;9.588;2023-02-19T07:43:18;109.43;;;104.93;;
8397;SDS011;4236;54.504;9.588;2023-02-19T07:45:46;110.33;;;106.33;;
8397;SDS011;4236;54.504;9.588;2023-02-19T07:48:14;103.53;;;99.17;;
8397;SDS011;4236;54.504;9.588;2023-02-19T07:50:49;100.03;;;96.23;;
8397;SDS011;4236;54.504;9.588;2023-02-19T07:53:18;95.83;;;91.53;;
8397;SDS011;4236;54.504;9.588;2023-02-19T07:55:45;93.33;;;89.03;;
8397;SDS011;4236;54.504;9.588;2023-02-19T07:58:13;91.20;;;86.87;;
8397;SDS011;4236;54.504;9.588;2023-02-19T08:00:42;84.57;;;80.60;;
8397;SDS011;4236;54.504;9.588;2023-02-19T08:03:10;75.63;;;72.13;;
8397;SDS011;4236;54.504;9.588;2023-02-19T08:05:39;70.63;;;67.47;;
8397;SDS011;4236;54.504;9.588;2023-02-19T08:08:09;63.43;;;60.20;;
8397;SDS011;4236;54.504;9.588;2023-02-19T08:10:37;64.80;;;61.87;;
8397;SDS011;4236;54.504;9.588;2023-02-19T08:13:23;63.30;;;60.23;;
8397;SDS011;4236;54.504;9.588;2023-02-19T08:15:53;54.23;;;51.73;;
8397;SDS011;4236;54.504;9.588;2023-02-19T08:18:39;49.17;;;46.13;;
8397;SDS011;4236;54.504;9.588;2023-02-19T08:21:07;46.47;;;44.13;;
8397;SDS011;4236;54.504;9.588;2023-02-19T08:23:35;45.63;;;42.83;;
8397;SDS011;4236;54.504;9.588;2023-02-19T08:26:04;40.90;;;38.63;;
8397;SDS011;4236;54.504;9.588;2023-02-19T08:28:32;45.80;;;42.40;;
8397;SDS011;4236;54.504;9.588;2023-02-19T08:31:02;42.40;;;39.60;;
8397;SDS011;4236;54.504;9.588;2023-02-19T08:33:31;39.70;;;37.23;;
8397;SDS011;4236;54.504;9.588;2023-02-19T08:36:00;40.13;;;36.93;;
8397;SDS011;4236;54.504;9.588;2023-02-19T08:38:30;37.63;;;34.97;;
8397;SDS011;4236;54.504;9.588;2023-02-19T08:41:02;37.07;;;34.97;;
8397;SDS011;4236;54.504;9.588;2023-02-19T08:43:31;38.13;;;35.80;;
8397;SDS011;4236;54.504;9.588;2023-02-19T08:46:01;38.00;;;35.73;;
8397;SDS011;4236;54.504;9.588;2023-02-19T08:48:29;38.73;;;36.53;;
8397;SDS011;4236;54.504;9.588;2023-02-19T08:50:57;38.63;;;36.40;;
8397;SDS011;4236;54.504;9.588;2023-02-19T08:53:29;39.60;;;37.50;;
8397;SDS011;4236;54.504;9.588;2023-02-19T08:56:00;39.67;;;36.40;;
8397;SDS011;4236;54.504;9.588;2023-02-19T08:58:31;38.70;;;36.30;;
8397;SDS011;4236;54.504;9.588;2023-02-19T09:00:59;37.67;;;35.20;;
8397;SDS011;4236;54.504;9.588;2023-02-19T09:03:28;38.13;;;35.73;;
8397;SDS011;4236;54.504;9.588;2023-02-19T09:05:56;39.70;;;36.83;;
8397;SDS011;4236;54.504;9.588;2023-02-19T09:08:23;37.87;;;35.07;;
8397;SDS011;4236;54.504;9.588;2023-02-19T09:10:57;40.00;;;37.53;;
8397;SDS011;4236;54.504;9.588;2023-02-19T09:13:26;38.90;;;35.50;;
8397;SDS011;4236;54.504;9.588;2023-02-19T09:15:54;38.03;;;35.27;;
8397;SDS011;4236;54.504;9.588;2023-02-19T09:18:22;36.53;;;33.93;;
8397;SDS011;4236;54.504;9.588;2023-02-19T09:20:51;35.23;;;32.97;;
8397;SDS011;4236;54.504;9.588;2023-02-19T09:23:19;35.07;;;32.53;;
8397;SDS011;4236;54.504;9.588;2023-02-19T09:25:47;36.33;;;33.90;;
8397;SDS011;4236;54.504;9.588;2023-02-19T09:28:14;36.00;;;34.10;;
8397;SDS011;4236;54.504;9.588;2023-02-19T09:30:42;34.67;;;32.37;;
8397;SDS011;4236;54.504;9.588;2023-02-19T09:33:10;34.50;;;32.03;;
8397;SDS011;4236;54.504;9.588;2023-02-19T09:35:37;34.50;;;32.23;;
8397;SDS011;4236;54.504;9.588;2023-02-19T09:38:07;34.10;;;31.87;;
8397;SDS011;4236;54.504;9.588;2023-02-19T09:40:36;35.53;;;33.10;;
8397;SDS011;4236;54.504;9.588;2023-02-19T09:43:05;36.37;;;33.73;;
8397;SDS011;4236;54.504;9.588;2023-02-19T09:45:34;34.67;;;32.33;;
8397;SDS011;4236;54.504;9.588;2023-02-19T09:48:03;35.77;;;33.47;;
8397;SDS011;4236;54.504;9.588;2023-02-19T09:50:33;35.70;;;33.50;;
8397;SDS011;4236;54.504;9.588;2023-02-19T09:53:06;35.87;;;33.33;;
8397;SDS011;4236;54.504;9.588;2023-02-19T09:55:42;37.53;;;35.10;;
8397;SDS011;4236;54.504;9.588;2023-02-19T09:58:16;34.63;;;32.73;;
8397;SDS011;4236;54.504;9.588;2023-02-19T10:00:49;33.93;;;31.20;;
8397;SDS011;4236;54.504;9.588;2023-02-19T10:03:21;35.80;;;33.40;;
8397;SDS011;4236;54.504;9.588;2023-02-19T10:05:57;35.63;;;32.93;;
8397;SDS011;4236;54.504;9.588;2023-02-19T10:08:30;35.03;;;32.80;;
8397;SDS011;4236;54.504;9.588;2023-02-19T10:10:58;34.53;;;32.63;;
8397;SDS011;4236;54.504;9.588;2023-02-19T10:13:28;33.83;;;31.53;;
8397;SDS011;4236;54.504;9.588;2023-02-19T10:15:59;33.10;;;31.10;;
8397;SDS011;4236;54.504;9.588;2023-02-19T10:18:29;32.30;;;30.33;;
8397;SDS011;4236;54.504;9.588;2023-02-19T10:21:05;34.20;;;32.40;;
8397;SDS011;4236;54.504;9.588;2023-02-19T10:23:34;35.30;;;33.30;;
8397;SDS011;4236;54.504;9.588;2023-02-19T10:26:02;33.77;;;31.90;;
8397;SDS011;4236;54.504;9.588;2023-02-19T10:28:30;33.50;;;31.80;;
8397;SDS011;4236;54.504;9.588;2023-02-19T10:31:01;34.80;;;32.40;;
8397;SDS011;4236;54.504;9.588;2023-02-19T10:33:31;33.20;;;31.40;;
8397;SDS011;4236;54.504;9.588;2023-02-19T10:36:01;33.83;;;32.00;;
8397;SDS011;4236;54.504;9.588;2023-02-19T10:38:31;36.30;;;34.30;;
8397;SDS011;4236;54.504;9.588;2023-02-19T10:41:03;34.27;;;32.27;;
8397;SDS011;4236;54.504;9.588;2023-02-19T10:43:34;37.30;;;35.00;;
8397;SDS011;4236;54.504;9.588;2023-02-19T10:46:06;34.97;;;33.17;;
8397;SDS011;4236;54.504;9.588;2023-02-19T10:48:41;34.10;;;32.23;;
8397;SDS011;4236;54.504;9.588;2023-02-19T10:51:12;33.70;;;31.83;;
8397;SDS011;4236;54.504;9.588;2023-02-19T10:53:46;33.17;;;31.30;;
8397;SDS011;4236;54.504;9.588;2023-02-19T10:56:21;32.20;;;30.60;;
8397;SDS011;4236;54.504;9.588;2023-02-19T10:58:50;33.13;;;31.23;;
8397;SDS011;4236;54.504;9.588;2023-02-19T11:01:19;31.83;;;30.33;;
8397;SDS011;4236;54.504;9.588;2023-02-19T11:03:49;32.20;;;30.40;;
8397;SDS011;4236;54.504;9.588;2023-02-19T11:06:18;33.00;;;31.43;;
8397;SDS011;4236;54.504;9.588;2023-02-19T11:08:52;32.30;;;30.07;;
8397;SDS011;4236;54.504;9.588;2023-02-19T11:11:27;30.17;;;28.67;;
8397;SDS011;4236;54.504;9.588;2023-02-19T11:13:58;31.87;;;29.70;;
8397;SDS011;4236;54.504;9.588;2023-02-19T11:16:38;31.03;;;29.33;;
8397;SDS011;4236;54.504;9.588;2023-02-19T11:19:21;31.67;;;29.80;;
8397;SDS011;4236;54.504;9.588;2023-02-19T11:21:53;29.57;;;27.80;;
8397;SDS011;4236;54.504;9.588;2023-02-19T11:24:23;28.37;;;26.97;;
8397;SDS011;4236;54.504;9.588;2023-02-19T11:26:57;29.30;;;27.87;;
8397;SDS011;4236;54.504;9.588;2023-02-19T11:29:26;28.23;;;27.03;;
8397;SDS011;4236;54.504;9.588;2023-02-19T11:35:13;28.40;;;26.97;;
8397;SDS011;4236;54.504;9.588;2023-02-19T11:37:52;28.90;;;27.20;;
8397;SDS011;4236;54.504;9.588;2023-02-19T11:40:24;28.27;;;26.70;;
8397;SDS011;4236;54.504;9.588;2023-02-19T11:43:06;28.67;;;27.27;;
8397;SDS011;4236;54.504;9.588;2023-02-19T11:45:48;28.33;;;26.50;;
8397;SDS011;4236;54.504;9.588;2023-02-19T11:48:30;26.10;;;24.80;;
8397;SDS011;4236;54.504;9.588;2023-02-19T11:51:15;24.13;;;22.97;;
8397;SDS011;4236;54.504;9.588;2023-02-19T11:53:55;26.27;;;24.83;;
8397;SDS011;4236;54.504;9.588;2023-02-19T11:56:34;26.87;;;25.60;;
8397;SDS011;4236;54.504;9.588;2023-02-19T11:59:06;30.83;;;28.63;;
8397;SDS011;4236;54.504;9.588;2023-02-19T12:01:50;25.57;;;24.13;;
8397;SDS011;4236;54.504;9.588;2023-02-19T12:04:35;23.93;;;22.73;;
8397;SDS011;4236;54.504;9.588;2023-02-19T12:07:25;23.27;;;22.27;;
8397;SDS011;4236;54.504;9.588;2023-02-19T12:10:05;21.30;;;20.30;;
8397;SDS011;4236;54.504;9.588;2023-02-19T12:12:43;20.13;;;19.10;;
8397;SDS011;4236;54.504;9.588;2023-02-19T12:15:23;19.67;;;18.83;;
8397;SDS011;4236;54.504;9.588;2023-02-19T12:18:05;18.57;;;17.87;;
8397;SDS011;4236;54.504;9.588;2023-02-19T12:20:59;19.53;;;18.63;;
8397;SDS011;4236;54.504;9.588;2023-02-19T12:23:53;20.30;;;19.50;;
8397;SDS011;4236;54.504;9.588;2023-02-19T12:26:33;19.40;;;18.57;;
8397;SDS011;4236;54.504;9.588;2023-02-19T12:29:15;18.70;;;17.83;;
8397;SDS011;4236;54.504;9.588;2023-02-19T12:31:58;20.17;;;19.23;;
8397;SDS011;4236;54.504;9.588;2023-02-19T12:35:02;18.37;;;17.60;;
8397;SDS011;4236;54.504;9.588;2023-02-19T12:37:43;17.80;;;17.23;;
8397;SDS011;4236;54.504;9.588;2023-02-19T12:40:22;17.97;;;17.27;;
8397;SDS011;4236;54.504;9.588;2023-02-19T12:43:01;17.30;;;16.70;;
8397;SDS011;4236;54.504;9.588;2023-02-19T12:45:37;19.47;;;18.67;;
8397;SDS011;4236;54.504;9.588;2023-02-19T12:48:12;19.60;;;18.70;;
8397;SDS011;4236;54.504;9.588;2023-02-19T12:50:45;19.00;;;17.83;;
8397;SDS011;4236;54.504;9.588;2023-02-19T12:53:23;18.27;;;17.53;;
8397;SDS011;4236;54.504;9.588;2023-02-19T12:56:09;18.13;;;17.33;;
8397;SDS011;4236;54.504;9.588;2023-02-19T12:58:42;18.10;;;17.00;;
8397;SDS011;4236;54.504;9.588;2023-02-19T13:01:13;18.50;;;17.63;;
8397;SDS011;4236;54.504;9.588;2023-02-19T13:03:49;21.00;;;19.80;;
8397;SDS011;4236;54.504;9.588;2023-02-19T13:06:23;21.60;;;20.60;;
8397;SDS011;4236;54.504;9.588;2023-02-19T13:09:00;21.13;;;19.87;;
8397;SDS011;4236;54.504;9.588;2023-02-19T13:11:34;22.23;;;21.03;;
8397;SDS011;4236;54.504;9.588;2023-02-19T13:14:09;20.13;;;19.53;;
8397;SDS011;4236;54.504;9.588;2023-02-19T13:16:45;21.77;;;20.27;;
8397;SDS011;4236;54.504;9.588;2023-02-19T13:19:18;20.37;;;19.57;;
8397;SDS011;4236;54.504;9.588;2023-02-19T13:21:46;20.67;;;19.50;;
8397;SDS011;4236;54.504;9.588;2023-02-19T13:24:40;19.40;;;18.70;;
8397;SDS011;4236;54.504;9.588;2023-02-19T13:27:15;21.50;;;20.53;;
8397;SDS011;4236;54.504;9.588;2023-02-19T13:30:00;20.30;;;19.60;;
8397;SDS011;4236;54.504;9.588;2023-02-19T13:32:39;22.27;;;20.70;;
8397;SDS011;4236;54.504;9.588;2023-02-19T13:35:22;20.50;;;19.60;;
8397;SDS011;4236;54.504;9.588;2023-02-19T13:37:54;20.57;;;19.70;;
8397;SDS011;4236;54.504;9.588;2023-02-19T13:40:29;20.87;;;19.50;;
8397;SDS011;4236;54.504;9.588;2023-02-19T13:43:00;18.90;;;18.00;;
8397;SDS011;4236;54.504;9.588;2023-02-19T13:45:30;18.70;;;17.90;;
8397;SDS011;4236;54.504;9.588;2023-02-19T13:48:11;18.40;;;17.70;;
8397;SDS011;4236;54.504;9.588;2023-02-19T13:50:42;18.57;;;17.73;;
8397;SDS011;4236;54.504;9.588;2023-02-19T13:56:36;17.17;;;16.43;;
8397;SDS011;4236;54.504;9.588;2023-02-19T13:59:12;18.47;;;17.77;;
8397;SDS011;4236;54.504;9.588;2023-02-19T14:04:53;19.47;;;18.60;;
8397;SDS011;4236;54.504;9.588;2023-02-19T14:16:51;20.67;;;19.87;;
8397;SDS011;4236;54.504;9.588;2023-02-19T14:25:37;22.80;;;21.70;;
8397;SDS011;4236;54.504;9.588;2023-02-19T14:28:22;24.30;;;23.07;;
8397;SDS011;4236;54.504;9.588;2023-02-19T14:30:55;22.33;;;21.43;;
8397;SDS011;4236;54.504;9.588;2023-02-19T14:33:26;23.97;;;22.63;;
8397;SDS011;4236;54.504;9.588;2023-02-19T14:35:57;22.90;;;22.00;;
8397;SDS011;4236;54.504;9.588;2023-02-19T14:38:29;23.53;;;22.43;;
8397;SDS011;4236;54.504;9.588;2023-02-19T14:41:03;22.97;;;21.90;;
8397;SDS011;4236;54.504;9.588;2023-02-19T14:43:32;23.03;;;22.10;;
8397;SDS011;4236;54.504;9.588;2023-02-19T14:46:03;23.93;;;23.03;;
8397;SDS011;4236;54.504;9.588;2023-02-19T14:48:36;25.77;;;24.67;;
8397;SDS011;4236;54.504;9.588;2023-02-19T14:51:07;24.37;;;23.07;;
8397;SDS011;4236;54.504;9.588;2023-02-19T14:53:42;24.07;;;23.17;;
8397;SDS011;4236;54.504;9.588;2023-02-19T14:56:17;23.63;;;22.70;;
8397;SDS011;4236;54.504;9.588;2023-02-19T15:01:34;25.07;;;24.17;;
8397;SDS011;4236;54.504;9.588;2023-02-19T15:04:01;25.80;;;24.40;;
8397;SDS011;4236;54.504;9.588;2023-02-19T15:06:29;25.10;;;24.10;;
8397;SDS011;4236;54.504;9.588;2023-02-19T15:08:59;26.57;;;25.67;;
8397;SDS011;4236;54.504;9.588;2023-02-19T15:11:31;26.90;;;25.80;;
8397;SDS011;4236;54.504;9.588;2023-02-19T15:14:01;26.07;;;25.17;;
8397;SDS011;4236;54.504;9.588;2023-02-19T15:16:31;27.30;;;26.13;;
8397;SDS011;4236;54.504;9.588;2023-02-19T15:19:03;29.67;;;28.47;;
8397;SDS011;4236;54.504;9.588;2023-02-19T15:21:33;27.90;;;26.40;;
8397;SDS011;4236;54.504;9.588;2023-02-19T15:24:04;29.57;;;28.13;;
8397;SDS011;4236;54.504;9.588;2023-02-19T15:26:34;27.57;;;26.47;;
8397;SDS011;4236;54.504;9.588;2023-02-19T15:29:08;28.40;;;27.00;;
8397;SDS011;4236;54.504;9.588;2023-02-19T15:31:43;27.40;;;26.40;;
8397;SDS011;4236;54.504;9.588;2023-02-19T15:34:14;27.10;;;25.53;;